sensor_id;sensor_type;location;lat;lon;timestamp;P1;durP1;ratioP1;P2;durP2;ratioP2
35326;SDS011;21436;52.348;20.928;2022-11-20T00:01:31;71.93;;;25.85;;
35326;SDS011;21436;52.348;20.928;2022-11-20T00:04:00;63.53;;;24.15;;
35326;SDS011;21436;52.348;20.928;2022-11-20T00:06:28;69.82;;;27.42;;
35326;SDS011;21436;52.348;20.928;2022-11-20T00:08:58;73.40;;;29.30;;
35326;SDS011;21436;52.348;20.928;2022-11-20T00:11:29;80.45;;;30.13;;
35326;SDS011;21436;52.348;20.928;2022-11-20T00:13:57;72.60;;;26.10;;
35326;SDS011;21436;52.348;20.928;2022-11-20T00:16:29;79.63;;;30.77;;
35326;SDS011;21436;52.348;20.928;2022-11-20T00:18:58;91.60;;;33.03;;
35326;SDS011;21436;52.348;20.928;2022-11-20T00:21:27;76.30;;;29.17;;
35326;SDS011;21436;52.348;20.928;2022-11-20T00:23:56;78.18;;;28.50;;
35326;SDS011;21436;52.348;20.928;2022-11-20T00:26:25;72.18;;;27.05;;
35326;SDS011;21436;52.348;20.928;2022-11-20T00:28:55;65.80;;;25.83;;
35326;SDS011;21436;52.348;20.928;2022-11-20T00:31:25;72.07;;;27.42;;
35326;SDS011;21436;52.348;20.928;2022-11-20T00:33:54;67.80;;;27.55;;
35326;SDS011;21436;52.348;20.928;2022-11-20T00:36:23;60.28;;;24.27;;
35326;SDS011;21436;52.348;20.928;2022-11-20T00:38:54;73.88;;;27.40;;
35326;SDS011;21436;52.348;20.928;2022-11-20T00:41:24;77.68;;;26.40;;
35326;SDS011;21436;52.348;20.928;2022-11-20T00:43:53;73.28;;;26.83;;
35326;SDS011;21436;52.348;20.928;2022-11-20T00:46:23;73.07;;;26.58;;
35326;SDS011;21436;52.348;20.928;2022-11-20T00:48:52;55.90;;;19.88;;
35326;SDS011;21436;52.348;20.928;2022-11-20T00:51:24;66.85;;;26.67;;
35326;SDS011;21436;52.348;20.928;2022-11-20T00:53:56;78.90;;;28.45;;
35326;SDS011;21436;52.348;20.928;2022-11-20T00:56:28;69.75;;;25.35;;
35326;SDS011;21436;52.348;20.928;2022-11-20T00:58:58;72.72;;;23.98;;
35326;SDS011;21436;52.348;20.928;2022-11-20T01:01:28;79.05;;;30.33;;
35326;SDS011;21436;52.348;20.928;2022-11-20T01:03:59;81.60;;;30.30;;
35326;SDS011;21436;52.348;20.928;2022-11-20T01:06:32;69.63;;;27.30;;
35326;SDS011;21436;52.348;20.928;2022-11-20T01:09:03;74.03;;;27.67;;
35326;SDS011;21436;52.348;20.928;2022-11-20T01:11:38;72.55;;;28.25;;
35326;SDS011;21436;52.348;20.928;2022-11-20T01:14:18;79.90;;;28.25;;
35326;SDS011;21436;52.348;20.928;2022-11-20T01:16:48;62.65;;;21.80;;
35326;SDS011;21436;52.348;20.928;2022-11-20T01:19:19;73.20;;;24.95;;
35326;SDS011;21436;52.348;20.928;2022-11-20T01:21:50;70.20;;;25.33;;
35326;SDS011;21436;52.348;20.928;2022-11-20T01:24:19;70.78;;;25.80;;
35326;SDS011;21436;52.348;20.928;2022-11-20T01:26:50;72.57;;;27.17;;
35326;SDS011;21436;52.348;20.928;2022-11-20T01:29:19;69.30;;;26.50;;
35326;SDS011;21436;52.348;20.928;2022-11-20T01:31:50;69.57;;;26.20;;
35326;SDS011;21436;52.348;20.928;2022-11-20T01:34:20;69.78;;;27.20;;
35326;SDS011;21436;52.348;20.928;2022-11-20T01:36:50;78.80;;;28.13;;
35326;SDS011;21436;52.348;20.928;2022-11-20T01:39:19;72.25;;;27.48;;
35326;SDS011;21436;52.348;20.928;2022-11-20T01:41:50;72.28;;;27.17;;
35326;SDS011;21436;52.348;20.928;2022-11-20T01:49:59;66.05;;;25.77;;
35326;SDS011;21436;52.348;20.928;2022-11-20T01:52:39;70.93;;;27.33;;
35326;SDS011;21436;52.348;20.928;2022-11-20T01:55:13;60.70;;;24.40;;
35326;SDS011;21436;52.348;20.928;2022-11-20T01:57:43;65.63;;;25.73;;
35326;SDS011;21436;52.348;20.928;2022-11-20T02:00:12;68.25;;;27.10;;
35326;SDS011;21436;52.348;20.928;2022-11-20T02:03:27;66.45;;;24.42;;
35326;SDS011;21436;52.348;20.928;2022-11-20T02:05:50;67.30;;;25.02;;
35326;SDS011;21436;52.348;20.928;2022-11-20T02:08:23;64.93;;;25.50;;
35326;SDS011;21436;52.348;20.928;2022-11-20T02:10:52;59.60;;;24.17;;
35326;SDS011;21436;52.348;20.928;2022-11-20T02:13:20;59.92;;;23.27;;
35326;SDS011;21436;52.348;20.928;2022-11-20T02:16:21;64.15;;;22.77;;
35326;SDS011;21436;52.348;20.928;2022-11-20T02:18:53;73.75;;;27.10;;
35326;SDS011;21436;52.348;20.928;2022-11-20T02:24:01;59.28;;;25.52;;
35326;SDS011;21436;52.348;20.928;2022-11-20T02:26:30;65.30;;;25.27;;
35326;SDS011;21436;52.348;20.928;2022-11-20T02:29:02;65.10;;;26.75;;
35326;SDS011;21436;52.348;20.928;2022-11-20T02:31:38;71.55;;;28.48;;
35326;SDS011;21436;52.348;20.928;2022-11-20T02:34:08;69.72;;;25.23;;
35326;SDS011;21436;52.348;20.928;2022-11-20T02:36:36;62.08;;;24.08;;
35326;SDS011;21436;52.348;20.928;2022-11-20T02:39:06;71.15;;;26.30;;
35326;SDS011;21436;52.348;20.928;2022-11-20T02:41:35;61.78;;;23.27;;
35326;SDS011;21436;52.348;20.928;2022-11-20T02:44:07;59.97;;;24.67;;
35326;SDS011;21436;52.348;20.928;2022-11-20T02:46:35;68.72;;;25.83;;
35326;SDS011;21436;52.348;20.928;2022-11-20T02:49:04;74.35;;;27.77;;
35326;SDS011;21436;52.348;20.928;2022-11-20T02:51:32;73.70;;;25.80;;
35326;SDS011;21436;52.348;20.928;2022-11-20T02:54:00;69.93;;;26.42;;
35326;SDS011;21436;52.348;20.928;2022-11-20T02:56:28;63.58;;;24.60;;
35326;SDS011;21436;52.348;20.928;2022-11-20T02:58:56;66.65;;;25.42;;
35326;SDS011;21436;52.348;20.928;2022-11-20T03:01:25;71.85;;;26.83;;
35326;SDS011;21436;52.348;20.928;2022-11-20T03:03:53;68.95;;;25.65;;
35326;SDS011;21436;52.348;20.928;2022-11-20T03:06:22;66.15;;;25.55;;
35326;SDS011;21436;52.348;20.928;2022-11-20T03:08:50;66.57;;;25.42;;
35326;SDS011;21436;52.348;20.928;2022-11-20T03:11:18;70.88;;;26.85;;
35326;SDS011;21436;52.348;20.928;2022-11-20T03:13:47;67.68;;;24.05;;
35326;SDS011;21436;52.348;20.928;2022-11-20T03:16:16;68.32;;;27.48;;
35326;SDS011;21436;52.348;20.928;2022-11-20T03:18:45;73.97;;;26.52;;
35326;SDS011;21436;52.348;20.928;2022-11-20T03:21:13;63.45;;;25.08;;
35326;SDS011;21436;52.348;20.928;2022-11-20T03:23:43;63.70;;;23.30;;
35326;SDS011;21436;52.348;20.928;2022-11-20T03:26:15;65.53;;;25.95;;
35326;SDS011;21436;52.348;20.928;2022-11-20T03:28:49;61.30;;;24.17;;
35326;SDS011;21436;52.348;20.928;2022-11-20T03:31:20;60.35;;;24.85;;
35326;SDS011;21436;52.348;20.928;2022-11-20T03:33:50;63.20;;;24.88;;
35326;SDS011;21436;52.348;20.928;2022-11-20T03:36:18;66.50;;;26.33;;
35326;SDS011;21436;52.348;20.928;2022-11-20T03:38:47;70.28;;;26.17;;
35326;SDS011;21436;52.348;20.928;2022-11-20T03:41:20;59.17;;;22.65;;
35326;SDS011;21436;52.348;20.928;2022-11-20T03:43:57;68.65;;;24.52;;
35326;SDS011;21436;52.348;20.928;2022-11-20T03:46:26;72.28;;;27.52;;
35326;SDS011;21436;52.348;20.928;2022-11-20T03:48:55;65.53;;;25.95;;
35326;SDS011;21436;52.348;20.928;2022-11-20T03:51:25;74.43;;;27.42;;
35326;SDS011;21436;52.348;20.928;2022-11-20T03:53:55;74.30;;;28.40;;
35326;SDS011;21436;52.348;20.928;2022-11-20T03:56:31;68.32;;;24.80;;
35326;SDS011;21436;52.348;20.928;2022-11-20T03:59:00;72.22;;;27.55;;
35326;SDS011;21436;52.348;20.928;2022-11-20T04:01:35;68.85;;;25.70;;
35326;SDS011;21436;52.348;20.928;2022-11-20T04:04:05;71.95;;;25.10;;
35326;SDS011;21436;52.348;20.928;2022-11-20T04:06:34;76.07;;;29.60;;
35326;SDS011;21436;52.348;20.928;2022-11-20T04:09:04;76.20;;;28.33;;
35326;SDS011;21436;52.348;20.928;2022-11-20T04:11:34;75.32;;;28.00;;
35326;SDS011;21436;52.348;20.928;2022-11-20T04:14:05;75.95;;;26.13;;
35326;SDS011;21436;52.348;20.928;2022-11-20T04:16:34;74.70;;;26.63;;
35326;SDS011;21436;52.348;20.928;2022-11-20T04:19:05;72.30;;;27.52;;
35326;SDS011;21436;52.348;20.928;2022-11-20T04:21:34;72.03;;;25.40;;
35326;SDS011;21436;52.348;20.928;2022-11-20T04:24:02;74.22;;;27.13;;
35326;SDS011;21436;52.348;20.928;2022-11-20T04:26:30;84.72;;;29.08;;
35326;SDS011;21436;52.348;20.928;2022-11-20T04:28:59;73.28;;;27.20;;
35326;SDS011;21436;52.348;20.928;2022-11-20T04:31:31;86.25;;;31.15;;
35326;SDS011;21436;52.348;20.928;2022-11-20T04:34:02;73.78;;;27.50;;
35326;SDS011;21436;52.348;20.928;2022-11-20T04:36:32;82.43;;;28.00;;
35326;SDS011;21436;52.348;20.928;2022-11-20T04:39:02;77.57;;;27.30;;
35326;SDS011;21436;52.348;20.928;2022-11-20T04:41:32;81.25;;;28.98;;
35326;SDS011;21436;52.348;20.928;2022-11-20T04:44:03;79.15;;;27.85;;
35326;SDS011;21436;52.348;20.928;2022-11-20T04:46:36;77.22;;;27.77;;
35326;SDS011;21436;52.348;20.928;2022-11-20T04:49:07;70.65;;;25.42;;
35326;SDS011;21436;52.348;20.928;2022-11-20T04:51:35;76.88;;;29.27;;
35326;SDS011;21436;52.348;20.928;2022-11-20T04:54:03;75.88;;;28.63;;
35326;SDS011;21436;52.348;20.928;2022-11-20T04:56:31;76.35;;;29.40;;
35326;SDS011;21436;52.348;20.928;2022-11-20T04:59:00;75.70;;;30.15;;
35326;SDS011;21436;52.348;20.928;2022-11-20T05:01:29;75.05;;;29.55;;
35326;SDS011;21436;52.348;20.928;2022-11-20T05:03:58;72.53;;;28.85;;
35326;SDS011;21436;52.348;20.928;2022-11-20T05:06:26;71.53;;;28.98;;
35326;SDS011;21436;52.348;20.928;2022-11-20T05:08:54;73.65;;;29.15;;
35326;SDS011;21436;52.348;20.928;2022-11-20T05:11:22;73.50;;;28.45;;
35326;SDS011;21436;52.348;20.928;2022-11-20T05:13:52;75.65;;;28.95;;
35326;SDS011;21436;52.348;20.928;2022-11-20T05:16:21;85.75;;;30.73;;
35326;SDS011;21436;52.348;20.928;2022-11-20T05:18:51;84.78;;;29.13;;
35326;SDS011;21436;52.348;20.928;2022-11-20T05:21:19;80.85;;;29.80;;
35326;SDS011;21436;52.348;20.928;2022-11-20T05:23:48;82.50;;;29.00;;
35326;SDS011;21436;52.348;20.928;2022-11-20T05:26:20;77.57;;;28.38;;
35326;SDS011;21436;52.348;20.928;2022-11-20T05:28:50;82.68;;;28.75;;
35326;SDS011;21436;52.348;20.928;2022-11-20T05:31:19;66.55;;;25.83;;
35326;SDS011;21436;52.348;20.928;2022-11-20T05:33:55;66.97;;;23.05;;
35326;SDS011;21436;52.348;20.928;2022-11-20T05:36:24;67.38;;;25.20;;
35326;SDS011;21436;52.348;20.928;2022-11-20T05:38:52;71.15;;;27.10;;
35326;SDS011;21436;52.348;20.928;2022-11-20T05:41:27;68.28;;;26.38;;
35326;SDS011;21436;52.348;20.928;2022-11-20T05:43:56;75.40;;;27.05;;
35326;SDS011;21436;52.348;20.928;2022-11-20T05:46:25;83.45;;;28.25;;
35326;SDS011;21436;52.348;20.928;2022-11-20T05:48:56;65.38;;;24.98;;
35326;SDS011;21436;52.348;20.928;2022-11-20T05:51:25;65.93;;;26.23;;
35326;SDS011;21436;52.348;20.928;2022-11-20T05:53:53;66.38;;;25.13;;
35326;SDS011;21436;52.348;20.928;2022-11-20T05:56:23;67.72;;;25.35;;
35326;SDS011;21436;52.348;20.928;2022-11-20T05:58:51;60.80;;;25.15;;
35326;SDS011;21436;52.348;20.928;2022-11-20T06:01:21;63.67;;;23.05;;
35326;SDS011;21436;52.348;20.928;2022-11-20T06:03:50;60.42;;;25.35;;
35326;SDS011;21436;52.348;20.928;2022-11-20T06:06:21;52.85;;;21.08;;
35326;SDS011;21436;52.348;20.928;2022-11-20T06:08:49;67.88;;;23.90;;
35326;SDS011;21436;52.348;20.928;2022-11-20T06:11:17;60.97;;;24.15;;
35326;SDS011;21436;52.348;20.928;2022-11-20T06:13:46;73.35;;;25.90;;
35326;SDS011;21436;52.348;20.928;2022-11-20T06:16:15;64.47;;;23.33;;
35326;SDS011;21436;52.348;20.928;2022-11-20T06:18:45;69.63;;;27.48;;
35326;SDS011;21436;52.348;20.928;2022-11-20T06:21:15;64.78;;;26.80;;
35326;SDS011;21436;52.348;20.928;2022-11-20T06:23:45;82.03;;;28.88;;
35326;SDS011;21436;52.348;20.928;2022-11-20T06:26:21;85.32;;;31.45;;
35326;SDS011;21436;52.348;20.928;2022-11-20T06:28:51;87.07;;;30.75;;
35326;SDS011;21436;52.348;20.928;2022-11-20T06:31:21;76.43;;;30.00;;
35326;SDS011;21436;52.348;20.928;2022-11-20T06:33:50;89.40;;;31.83;;
35326;SDS011;21436;52.348;20.928;2022-11-20T06:36:21;89.25;;;30.70;;
35326;SDS011;21436;52.348;20.928;2022-11-20T06:38:49;77.85;;;30.67;;
35326;SDS011;21436;52.348;20.928;2022-11-20T06:41:19;97.78;;;37.10;;
35326;SDS011;21436;52.348;20.928;2022-11-20T06:43:48;96.68;;;34.58;;
35326;SDS011;21436;52.348;20.928;2022-11-20T06:46:17;84.70;;;33.45;;
35326;SDS011;21436;52.348;20.928;2022-11-20T06:48:46;91.75;;;34.53;;
35326;SDS011;21436;52.348;20.928;2022-11-20T06:51:15;89.90;;;31.08;;
35326;SDS011;21436;52.348;20.928;2022-11-20T06:53:44;91.45;;;29.17;;
35326;SDS011;21436;52.348;20.928;2022-11-20T06:56:12;84.53;;;33.50;;
35326;SDS011;21436;52.348;20.928;2022-11-20T06:58:40;95.35;;;33.33;;
35326;SDS011;21436;52.348;20.928;2022-11-20T07:01:10;83.22;;;30.20;;
35326;SDS011;21436;52.348;20.928;2022-11-20T07:03:40;112.07;;;36.50;;
35326;SDS011;21436;52.348;20.928;2022-11-20T07:06:08;81.90;;;30.75;;
35326;SDS011;21436;52.348;20.928;2022-11-20T07:08:36;80.32;;;29.60;;
35326;SDS011;21436;52.348;20.928;2022-11-20T07:11:06;78.93;;;30.48;;
35326;SDS011;21436;52.348;20.928;2022-11-20T07:13:35;75.10;;;29.90;;
35326;SDS011;21436;52.348;20.928;2022-11-20T07:16:04;86.95;;;32.25;;
35326;SDS011;21436;52.348;20.928;2022-11-20T07:18:34;88.85;;;29.80;;
35326;SDS011;21436;52.348;20.928;2022-11-20T07:21:05;104.93;;;33.08;;
35326;SDS011;21436;52.348;20.928;2022-11-20T07:23:34;87.70;;;30.65;;
35326;SDS011;21436;52.348;20.928;2022-11-20T07:26:07;83.97;;;30.25;;
35326;SDS011;21436;52.348;20.928;2022-11-20T07:31:05;75.85;;;27.60;;
35326;SDS011;21436;52.348;20.928;2022-11-20T07:33:34;87.80;;;30.45;;
35326;SDS011;21436;52.348;20.928;2022-11-20T07:36:03;76.65;;;30.23;;
35326;SDS011;21436;52.348;20.928;2022-11-20T07:38:31;86.20;;;30.08;;
35326;SDS011;21436;52.348;20.928;2022-11-20T07:40:59;80.50;;;29.98;;
35326;SDS011;21436;52.348;20.928;2022-11-20T07:43:30;70.43;;;27.52;;
35326;SDS011;21436;52.348;20.928;2022-11-20T07:46:04;68.78;;;27.17;;
35326;SDS011;21436;52.348;20.928;2022-11-20T07:48:32;73.38;;;27.83;;
35326;SDS011;21436;52.348;20.928;2022-11-20T07:51:01;71.60;;;27.35;;
35326;SDS011;21436;52.348;20.928;2022-11-20T07:53:29;70.65;;;26.60;;
35326;SDS011;21436;52.348;20.928;2022-11-20T07:56:00;74.35;;;27.25;;
35326;SDS011;21436;52.348;20.928;2022-11-20T07:58:29;72.50;;;28.38;;
35326;SDS011;21436;52.348;20.928;2022-11-20T08:01:04;72.25;;;27.45;;
35326;SDS011;21436;52.348;20.928;2022-11-20T08:03:34;67.85;;;26.95;;
35326;SDS011;21436;52.348;20.928;2022-11-20T08:06:05;69.95;;;26.38;;
35326;SDS011;21436;52.348;20.928;2022-11-20T08:08:33;71.65;;;28.73;;
35326;SDS011;21436;52.348;20.928;2022-11-20T08:11:08;69.60;;;27.70;;
35326;SDS011;21436;52.348;20.928;2022-11-20T08:13:55;63.22;;;26.90;;
35326;SDS011;21436;52.348;20.928;2022-11-20T08:16:43;70.43;;;28.10;;
35326;SDS011;21436;52.348;20.928;2022-11-20T08:19:12;73.00;;;27.23;;
35326;SDS011;21436;52.348;20.928;2022-11-20T08:21:42;70.55;;;28.13;;
35326;SDS011;21436;52.348;20.928;2022-11-20T08:24:11;68.10;;;26.08;;
35326;SDS011;21436;52.348;20.928;2022-11-20T08:26:39;72.85;;;28.45;;
35326;SDS011;21436;52.348;20.928;2022-11-20T08:29:08;69.65;;;27.08;;
35326;SDS011;21436;52.348;20.928;2022-11-20T08:31:36;73.95;;;29.02;;
35326;SDS011;21436;52.348;20.928;2022-11-20T08:34:24;66.00;;;27.70;;
35326;SDS011;21436;52.348;20.928;2022-11-20T08:36:52;68.60;;;27.30;;
35326;SDS011;21436;52.348;20.928;2022-11-20T08:39:20;65.80;;;27.08;;
35326;SDS011;21436;52.348;20.928;2022-11-20T08:41:49;65.40;;;27.70;;
35326;SDS011;21436;52.348;20.928;2022-11-20T08:44:16;66.82;;;28.65;;
35326;SDS011;21436;52.348;20.928;2022-11-20T08:46:45;80.00;;;28.27;;
35326;SDS011;21436;52.348;20.928;2022-11-20T08:49:14;69.97;;;27.65;;
35326;SDS011;21436;52.348;20.928;2022-11-20T08:51:42;67.30;;;28.60;;
35326;SDS011;21436;52.348;20.928;2022-11-20T08:54:10;60.97;;;26.50;;
35326;SDS011;21436;52.348;20.928;2022-11-20T08:56:39;66.80;;;26.33;;
35326;SDS011;21436;52.348;20.928;2022-11-20T08:59:07;67.03;;;27.42;;
35326;SDS011;21436;52.348;20.928;2022-11-20T09:01:55;69.70;;;27.58;;
35326;SDS011;21436;52.348;20.928;2022-11-20T09:04:23;74.57;;;28.00;;
35326;SDS011;21436;52.348;20.928;2022-11-20T09:06:52;70.28;;;28.83;;
35326;SDS011;21436;52.348;20.928;2022-11-20T09:09:20;80.75;;;30.92;;
35326;SDS011;21436;52.348;20.928;2022-11-20T09:11:48;75.53;;;29.35;;
35326;SDS011;21436;52.348;20.928;2022-11-20T09:14:17;73.50;;;28.70;;
35326;SDS011;21436;52.348;20.928;2022-11-20T09:16:45;69.90;;;28.80;;
35326;SDS011;21436;52.348;20.928;2022-11-20T09:19:13;67.30;;;27.73;;
35326;SDS011;21436;52.348;20.928;2022-11-20T09:22:02;69.45;;;29.75;;
35326;SDS011;21436;52.348;20.928;2022-11-20T09:24:30;71.18;;;28.70;;
35326;SDS011;21436;52.348;20.928;2022-11-20T09:27:00;68.90;;;27.02;;
35326;SDS011;21436;52.348;20.928;2022-11-20T09:29:29;74.53;;;28.67;;
35326;SDS011;21436;52.348;20.928;2022-11-20T09:31:59;67.82;;;26.80;;
35326;SDS011;21436;52.348;20.928;2022-11-20T09:34:27;81.95;;;29.60;;
35326;SDS011;21436;52.348;20.928;2022-11-20T09:36:56;76.50;;;28.13;;
35326;SDS011;21436;52.348;20.928;2022-11-20T09:39:30;74.63;;;28.98;;
35326;SDS011;21436;52.348;20.928;2022-11-20T09:44:57;70.35;;;27.77;;
35326;SDS011;21436;52.348;20.928;2022-11-20T09:56:38;72.85;;;27.70;;
35326;SDS011;21436;52.348;20.928;2022-11-20T09:59:13;77.28;;;29.63;;
35326;SDS011;21436;52.348;20.928;2022-11-20T10:02:24;68.18;;;27.38;;
35326;SDS011;21436;52.348;20.928;2022-11-20T10:08:16;85.22;;;31.10;;
35326;SDS011;21436;52.348;20.928;2022-11-20T10:10:44;77.57;;;29.30;;
35326;SDS011;21436;52.348;20.928;2022-11-20T10:13:23;78.68;;;30.75;;
35326;SDS011;21436;52.348;20.928;2022-11-20T10:16:56;74.10;;;27.88;;
35326;SDS011;21436;52.348;20.928;2022-11-20T10:25:38;73.63;;;31.58;;
35326;SDS011;21436;52.348;20.928;2022-11-20T10:28:16;68.22;;;27.23;;
35326;SDS011;21436;52.348;20.928;2022-11-20T10:31:04;67.35;;;26.13;;
35326;SDS011;21436;52.348;20.928;2022-11-20T10:33:42;65.82;;;29.13;;
35326;SDS011;21436;52.348;20.928;2022-11-20T10:42:47;68.70;;;28.02;;
35326;SDS011;21436;52.348;20.928;2022-11-20T10:47:57;72.50;;;29.88;;
35326;SDS011;21436;52.348;20.928;2022-11-20T10:50:36;69.53;;;28.08;;
35326;SDS011;21436;52.348;20.928;2022-11-20T10:53:33;85.57;;;35.33;;
35326;SDS011;21436;52.348;20.928;2022-11-20T10:56:05;85.97;;;33.90;;
35326;SDS011;21436;52.348;20.928;2022-11-20T10:58:40;64.72;;;26.27;;
35326;SDS011;21436;52.348;20.928;2022-11-20T11:01:15;61.17;;;26.88;;
35326;SDS011;21436;52.348;20.928;2022-11-20T11:03:45;86.93;;;34.45;;
35326;SDS011;21436;52.348;20.928;2022-11-20T11:06:22;82.38;;;30.65;;
35326;SDS011;21436;52.348;20.928;2022-11-20T11:08:53;137.32;;;48.97;;
35326;SDS011;21436;52.348;20.928;2022-11-20T11:11:28;129.20;;;45.70;;
35326;SDS011;21436;52.348;20.928;2022-11-20T11:16:49;72.70;;;30.80;;
35326;SDS011;21436;52.348;20.928;2022-11-20T11:19:19;73.93;;;31.98;;
35326;SDS011;21436;52.348;20.928;2022-11-20T11:21:48;69.75;;;28.80;;
35326;SDS011;21436;52.348;20.928;2022-11-20T11:24:26;107.25;;;44.70;;
35326;SDS011;21436;52.348;20.928;2022-11-20T11:27:12;73.45;;;29.60;;
35326;SDS011;21436;52.348;20.928;2022-11-20T11:29:44;66.63;;;27.65;;
35326;SDS011;21436;52.348;20.928;2022-11-20T11:32:13;66.03;;;26.25;;
35326;SDS011;21436;52.348;20.928;2022-11-20T11:34:42;65.07;;;26.83;;
35326;SDS011;21436;52.348;20.928;2022-11-20T11:37:16;56.70;;;24.65;;
35326;SDS011;21436;52.348;20.928;2022-11-20T11:39:46;60.65;;;24.65;;
35326;SDS011;21436;52.348;20.928;2022-11-20T11:42:25;65.70;;;27.92;;
35326;SDS011;21436;52.348;20.928;2022-11-20T11:44:56;63.63;;;26.65;;
35326;SDS011;21436;52.348;20.928;2022-11-20T11:55:49;57.35;;;23.60;;
35326;SDS011;21436;52.348;20.928;2022-11-20T12:06:56;53.63;;;22.55;;
35326;SDS011;21436;52.348;20.928;2022-11-20T12:09:51;79.50;;;33.72;;
35326;SDS011;21436;52.348;20.928;2022-11-20T12:12:27;60.47;;;25.83;;
35326;SDS011;21436;52.348;20.928;2022-11-20T12:15:11;54.60;;;24.40;;
35326;SDS011;21436;52.348;20.928;2022-11-20T12:17:41;56.53;;;25.13;;
35326;SDS011;21436;52.348;20.928;2022-11-20T12:20:13;58.78;;;25.95;;
35326;SDS011;21436;52.348;20.928;2022-11-20T12:23:16;56.97;;;25.05;;
35326;SDS011;21436;52.348;20.928;2022-11-20T12:25:38;61.90;;;26.05;;
35326;SDS011;21436;52.348;20.928;2022-11-20T12:30:38;58.42;;;26.20;;
35326;SDS011;21436;52.348;20.928;2022-11-20T12:33:38;58.08;;;25.48;;
35326;SDS011;21436;52.348;20.928;2022-11-20T12:36:17;60.70;;;25.00;;
35326;SDS011;21436;52.348;20.928;2022-11-20T12:41:40;58.80;;;27.80;;
35326;SDS011;21436;52.348;20.928;2022-11-20T12:56:24;62.17;;;26.85;;
35326;SDS011;21436;52.348;20.928;2022-11-20T12:59:09;59.58;;;25.40;;
35326;SDS011;21436;52.348;20.928;2022-11-20T13:01:58;67.85;;;29.48;;
35326;SDS011;21436;52.348;20.928;2022-11-20T13:07:05;56.15;;;24.73;;
35326;SDS011;21436;52.348;20.928;2022-11-20T13:09:42;57.58;;;25.60;;
35326;SDS011;21436;52.348;20.928;2022-11-20T13:12:18;58.20;;;26.27;;
35326;SDS011;21436;52.348;20.928;2022-11-20T13:17:48;58.30;;;25.38;;
35326;SDS011;21436;52.348;20.928;2022-11-20T13:20:20;70.18;;;30.10;;
35326;SDS011;21436;52.348;20.928;2022-11-20T13:22:51;56.58;;;25.02;;
35326;SDS011;21436;52.348;20.928;2022-11-20T13:25:35;57.50;;;23.83;;
35326;SDS011;21436;52.348;20.928;2022-11-20T13:30:48;50.13;;;21.02;;
35326;SDS011;21436;52.348;20.928;2022-11-20T13:38:54;104.18;;;39.38;;
35326;SDS011;21436;52.348;20.928;2022-11-20T13:41:28;94.72;;;37.75;;
35326;SDS011;21436;52.348;20.928;2022-11-20T13:46:40;87.78;;;35.35;;
35326;SDS011;21436;52.348;20.928;2022-11-20T13:49:18;115.40;;;47.33;;
35326;SDS011;21436;52.348;20.928;2022-11-20T13:52:26;111.18;;;45.40;;
35326;SDS011;21436;52.348;20.928;2022-11-20T14:00:19;109.75;;;44.88;;
35326;SDS011;21436;52.348;20.928;2022-11-20T14:02:58;96.03;;;39.20;;
35326;SDS011;21436;52.348;20.928;2022-11-20T14:05:27;93.20;;;36.20;;
35326;SDS011;21436;52.348;20.928;2022-11-20T14:07:56;83.35;;;31.38;;
35326;SDS011;21436;52.348;20.928;2022-11-20T14:10:26;72.88;;;29.73;;
35326;SDS011;21436;52.348;20.928;2022-11-20T14:12:58;79.60;;;32.90;;
35326;SDS011;21436;52.348;20.928;2022-11-20T14:15:38;91.35;;;36.15;;
35326;SDS011;21436;52.348;20.928;2022-11-20T14:18:19;78.30;;;32.85;;
35326;SDS011;21436;52.348;20.928;2022-11-20T14:20:49;84.93;;;36.85;;
35326;SDS011;21436;52.348;20.928;2022-11-20T14:23:24;119.45;;;42.40;;
35326;SDS011;21436;52.348;20.928;2022-11-20T14:25:56;106.72;;;41.33;;
35326;SDS011;21436;52.348;20.928;2022-11-20T14:28:29;89.82;;;34.47;;
35326;SDS011;21436;52.348;20.928;2022-11-20T14:30:57;87.53;;;38.38;;
35326;SDS011;21436;52.348;20.928;2022-11-20T14:33:26;83.45;;;34.28;;
35326;SDS011;21436;52.348;20.928;2022-11-20T14:35:55;76.20;;;31.10;;
35326;SDS011;21436;52.348;20.928;2022-11-20T14:38:28;85.03;;;35.45;;
35326;SDS011;21436;52.348;20.928;2022-11-20T14:41:14;84.60;;;32.85;;
35326;SDS011;21436;52.348;20.928;2022-11-20T14:43:57;79.53;;;32.80;;
35326;SDS011;21436;52.348;20.928;2022-11-20T14:46:25;87.97;;;37.42;;
35326;SDS011;21436;52.348;20.928;2022-11-20T14:48:55;81.68;;;32.63;;
35326;SDS011;21436;52.348;20.928;2022-11-20T14:51:29;78.63;;;33.13;;
35326;SDS011;21436;52.348;20.928;2022-11-20T14:56:38;83.40;;;32.95;;
35326;SDS011;21436;52.348;20.928;2022-11-20T14:59:07;74.60;;;28.83;;
35326;SDS011;21436;52.348;20.928;2022-11-20T15:01:36;59.58;;;25.77;;
35326;SDS011;21436;52.348;20.928;2022-11-20T15:04:06;66.07;;;28.60;;
35326;SDS011;21436;52.348;20.928;2022-11-20T15:06:37;69.15;;;27.30;;
35326;SDS011;21436;52.348;20.928;2022-11-20T15:09:16;76.68;;;32.00;;
35326;SDS011;21436;52.348;20.928;2022-11-20T15:12:18;75.35;;;31.60;;
35326;SDS011;21436;52.348;20.928;2022-11-20T15:14:43;78.13;;;30.15;;
35326;SDS011;21436;52.348;20.928;2022-11-20T15:17:11;61.28;;;26.15;;
35326;SDS011;21436;52.348;20.928;2022-11-20T15:19:39;80.13;;;29.23;;
35326;SDS011;21436;52.348;20.928;2022-11-20T15:22:09;68.35;;;30.73;;
35326;SDS011;21436;52.348;20.928;2022-11-20T15:24:44;77.63;;;31.67;;
35326;SDS011;21436;52.348;20.928;2022-11-20T15:27:13;76.25;;;31.95;;
35326;SDS011;21436;52.348;20.928;2022-11-20T15:29:41;76.30;;;31.73;;
35326;SDS011;21436;52.348;20.928;2022-11-20T15:32:14;70.20;;;30.00;;
35326;SDS011;21436;52.348;20.928;2022-11-20T15:34:42;65.22;;;28.52;;
35326;SDS011;21436;52.348;20.928;2022-11-20T15:37:10;81.95;;;33.45;;
35326;SDS011;21436;52.348;20.928;2022-11-20T15:39:39;92.03;;;36.45;;
35326;SDS011;21436;52.348;20.928;2022-11-20T15:42:06;94.40;;;37.92;;
35326;SDS011;21436;52.348;20.928;2022-11-20T15:44:34;92.38;;;40.03;;
35326;SDS011;21436;52.348;20.928;2022-11-20T15:47:03;85.03;;;35.45;;
35326;SDS011;21436;52.348;20.928;2022-11-20T15:49:31;79.47;;;33.38;;
35326;SDS011;21436;52.348;20.928;2022-11-20T15:51:59;67.90;;;29.23;;
35326;SDS011;21436;52.348;20.928;2022-11-20T15:54:28;89.50;;;36.50;;
35326;SDS011;21436;52.348;20.928;2022-11-20T15:56:56;86.93;;;37.40;;
35326;SDS011;21436;52.348;20.928;2022-11-20T15:59:24;82.55;;;34.90;;
35326;SDS011;21436;52.348;20.928;2022-11-20T16:01:53;77.53;;;31.90;;
35326;SDS011;21436;52.348;20.928;2022-11-20T16:04:21;71.57;;;26.58;;
35326;SDS011;21436;52.348;20.928;2022-11-20T16:06:49;79.05;;;33.20;;
35326;SDS011;21436;52.348;20.928;2022-11-20T16:09:18;73.93;;;31.65;;
35326;SDS011;21436;52.348;20.928;2022-11-20T16:11:46;80.10;;;33.25;;
35326;SDS011;21436;52.348;20.928;2022-11-20T16:14:14;67.55;;;28.13;;
35326;SDS011;21436;52.348;20.928;2022-11-20T16:17:01;76.00;;;27.55;;
35326;SDS011;21436;52.348;20.928;2022-11-20T16:19:29;81.97;;;34.03;;